createdAt,value
2022-07-29T00:02:26.078Z,92101.38
2022-07-29T00:04:52.686Z,92097.84
2022-07-29T00:07:19.308Z,92102.72
2022-07-29T00:09:52.057Z,92089.44
2022-07-29T00:12:25.170Z,92091.50
2022-07-29T00:14:56.684Z,92094.31
2022-07-29T00:17:24.553Z,92095.78
2022-07-29T00:19:51.453Z,92088.69
2022-07-29T00:22:18.039Z,92087.25
2022-07-29T00:24:44.603Z,92082.38
2022-07-29T00:27:11.180Z,92076.78
2022-07-29T00:29:37.717Z,92081.66
2022-07-29T00:32:04.588Z,92087.25
2022-07-29T00:34:50.334Z,92084.56
2022-07-29T00:37:17.008Z,92089.44
2022-07-29T00:39:43.988Z,92078.22
2022-07-29T00:42:10.908Z,92084.44
2022-07-29T00:44:42.056Z,92076.03
2022-07-29T00:47:12.748Z,92078.09
2022-07-29T00:49:41.445Z,92080.19
2022-07-29T00:52:10.134Z,92077.50
2022-07-29T00:54:44.231Z,92078.84
2022-07-29T00:57:12.225Z,92078.09
2022-07-29T00:59:38.807Z,92078.84
2022-07-29T01:02:05.598Z,92076.03
2022-07-29T01:04:32.956Z,92080.19
2022-07-29T01:07:01.651Z,92080.91
2022-07-29T01:09:42.049Z,92077.38
2022-07-29T01:12:19.284Z,92079.59
2022-07-29T01:14:47.428Z,92075.31
2022-07-29T01:17:33.282Z,92074.56
2022-07-29T01:20:19.810Z,92075.31
2022-07-29T01:22:52.234Z,92069.69
2022-07-29T01:25:41.444Z,92062.03
2022-07-29T01:28:42.169Z,92065.56
2022-07-29T01:31:16.574Z,92063.34
2022-07-29T01:33:58.635Z,92063.34
2022-07-29T01:36:51.369Z,92050.69
2022-07-29T01:39:23.703Z,92057.03
2022-07-29T01:42:15.660Z,92051.44
2022-07-29T01:44:55.052Z,92052.13
2022-07-29T01:47:23.249Z,92063.34
2022-07-29T01:49:55.693Z,92051.44
2022-07-29T01:52:32.331Z,92049.97
2022-07-29T01:55:03.545Z,92049.97
2022-07-29T01:57:33.809Z,92053.50
2022-07-29T02:00:01.830Z,92053.50
2022-07-29T02:02:31.281Z,92055.56
2022-07-29T02:04:58.881Z,92055.56
2022-07-29T02:07:29.695Z,92056.31
2022-07-29T02:09:58.495Z,92057.66
2022-07-29T02:12:27.141Z,92055.56
2022-07-29T02:15:00.544Z,92057.66
2022-07-29T02:17:40.874Z,92058.38
2022-07-29T02:20:09.411Z,92056.19
2022-07-29T02:22:40.111Z,92060.47
2022-07-29T02:25:13.867Z,92057.66
2022-07-29T02:27:41.867Z,92059.00
2022-07-29T02:30:09.048Z,92053.38
2022-07-29T02:32:36.451Z,92054.84
2022-07-29T02:35:04.161Z,92050.69
2022-07-29T02:37:31.866Z,92052.06
2022-07-29T02:40:00.012Z,92043.66
2022-07-29T02:42:28.688Z,92053.38
2022-07-29T02:44:55.823Z,92046.34
2022-07-29T02:47:41.782Z,92043.53
2022-07-29T02:50:15.148Z,92043.53
2022-07-29T02:52:58.471Z,92035.13
2022-07-29T02:55:38.628Z,92035.13
2022-07-29T02:58:23.592Z,92041.44
2022-07-29T03:00:52.706Z,92040.72
2022-07-29T03:03:19.975Z,92046.34
2022-07-29T03:05:46.490Z,92047.78
2022-07-29T03:08:15.750Z,92046.34
2022-07-29T03:10:45.067Z,92046.34
2022-07-29T03:13:13.409Z,92051.94
2022-07-29T03:15:40.513Z,92051.94
2022-07-29T03:18:08.036Z,92057.56
2022-07-29T03:20:34.859Z,92057.56
2022-07-29T03:23:01.499Z,92061.69
2022-07-29T03:25:28.391Z,92061.69
2022-07-29T03:27:55.113Z,92063.16
2022-07-29T03:30:22.539Z,92068.75
2022-07-29T03:32:52.169Z,92071.56
2022-07-29T03:35:23.573Z,92073.63
2022-07-29T03:37:50.204Z,92072.91
2022-07-29T03:40:26.928Z,92078.50
2022-07-29T03:42:55.862Z,92076.44
2022-07-29T03:45:23.722Z,92081.44
2022-07-29T03:47:59.908Z,92075.81
2022-07-29T03:50:27.440Z,92075.81
2022-07-29T03:52:54.112Z,92081.53
2022-07-29T03:55:20.793Z,92077.28
2022-07-29T03:57:48.983Z,92079.97
2022-07-29T04:00:20.449Z,92079.97
2022-07-29T04:02:49.634Z,92078.63
2022-07-29T04:05:17.288Z,92077.28
2022-07-29T04:07:47.560Z,92077.28
2022-07-29T04:10:16.538Z,92072.91
2022-07-29T04:12:43.265Z,92074.38
2022-07-29T04:15:10.441Z,92068.75
2022-07-29T04:17:37.509Z,92074.38
2022-07-29T04:20:05.043Z,92072.91
2022-07-29T04:22:31.799Z,92066.56
2022-07-29T04:25:03.531Z,92065.97
2022-07-29T04:27:30.625Z,92074.38
2022-07-29T04:29:57.653Z,92073.00
2022-07-29T04:32:25.432Z,92074.38
2022-07-29T04:34:52.399Z,92075.81
2022-07-29T04:37:19.153Z,92077.28
2022-07-29T04:39:45.711Z,92076.56
2022-07-29T04:42:12.244Z,92087.03
2022-07-29T04:44:43.124Z,92087.03
2022-07-29T04:47:10.277Z,92081.44
2022-07-29T04:49:39.494Z,92084.22
2022-07-29T04:52:07.304Z,92087.03
2022-07-29T04:54:34.258Z,92090.56
2022-07-29T04:57:00.859Z,92087.78
2022-07-29T04:59:28.020Z,92088.50
2022-07-29T05:01:54.663Z,92079.97
2022-07-29T05:04:21.430Z,92082.91
2022-07-29T05:06:48.406Z,92087.03
2022-07-29T05:09:14.968Z,92084.22
2022-07-29T05:11:41.512Z,92081.44
2022-07-29T05:14:08.087Z,92079.97
2022-07-29T05:16:34.663Z,92081.44
2022-07-29T05:19:01.219Z,92079.97
2022-07-29T05:21:27.833Z,92078.50
2022-07-29T05:23:54.366Z,92077.88
2022-07-29T05:26:20.895Z,92077.19
2022-07-29T05:28:47.458Z,92074.38
2022-07-29T05:31:15.677Z,92080.50
2022-07-29T05:33:42.692Z,92077.44
2022-07-29T05:36:09.666Z,92072.44
2022-07-29T05:38:37.275Z,92076.38
2022-07-29T05:41:04.667Z,92077.59
2022-07-29T05:43:31.167Z,92069.19
2022-07-29T05:45:58.147Z,92068.88
2022-07-29T05:48:25.306Z,92071.47
2022-07-29T05:50:51.889Z,92069.91
2022-07-29T05:53:19.670Z,92062.09
2022-07-29T05:55:48.102Z,92071.34
2022-07-29T05:58:14.714Z,92067.19
2022-07-29T06:00:41.532Z,92065.34
2022-07-29T06:03:08.105Z,92061.91
2022-07-29T06:05:34.811Z,92071.78
2022-07-29T06:08:01.588Z,92064.94
2022-07-29T06:10:28.146Z,92060.06
2022-07-29T06:12:54.832Z,92066.38
2022-07-29T06:15:21.470Z,92063.69
2022-07-29T06:18:00.510Z,92062.38
2022-07-29T06:20:30.767Z,92065.16
2022-07-29T06:22:58.082Z,92065.25
2022-07-29T06:25:24.632Z,92065.16
2022-07-29T06:27:51.140Z,92060.56
2022-07-29T06:30:17.726Z,92061.91
2022-07-29T06:32:44.285Z,92054.88
2022-07-29T06:37:58.036Z,92059.34
2022-07-29T06:40:45.488Z,92049.56
2022-07-29T06:43:12.101Z,92046.78
2022-07-29T06:45:42.163Z,92049.34
2022-07-29T06:48:09.156Z,92043.31
2022-07-29T06:50:35.671Z,92051.69
2022-07-29T06:53:02.332Z,92043.69
2022-07-29T06:55:28.836Z,92046.59
2022-07-29T06:57:55.381Z,92039.75
2022-07-29T07:00:21.972Z,92047.88
2022-07-29T07:02:48.964Z,92047.38
2022-07-29T07:05:15.572Z,92041.88
2022-07-29T07:07:42.328Z,92040.41
2022-07-29T07:10:09.291Z,92039.16
2022-07-29T07:12:35.851Z,92042.06
2022-07-29T07:15:02.390Z,92051.84
2022-07-29T07:17:28.917Z,92047.91
2022-07-29T07:19:55.722Z,92050.72
2022-07-29T07:22:22.391Z,92050.09
2022-07-29T07:24:48.936Z,92049.34
2022-07-29T07:27:15.467Z,92045.94
2022-07-29T07:29:44.002Z,92052.25
2022-07-29T07:32:11.232Z,92052.25
2022-07-29T07:34:38.974Z,92051.66
2022-07-29T07:37:06.483Z,92043.84
2022-07-29T07:39:33.072Z,92048.13
2022-07-29T07:41:59.893Z,92046.66
2022-07-29T07:44:26.475Z,92032.75
2022-07-29T07:46:53.447Z,92031.31
2022-07-29T07:49:21.627Z,92027.88
2022-07-29T07:51:50.756Z,92029.94
2022-07-29T07:54:18.460Z,92015.94
2022-07-29T07:56:50.819Z,92017.53
2022-07-29T07:59:19.930Z,92017.41
2022-07-29T08:01:55.155Z,92010.34
2022-07-29T08:04:27.310Z,92017.41
2022-07-29T08:06:55.387Z,92011.81
2022-07-29T08:09:29.166Z,92009.00
2022-07-29T08:11:57.931Z,91999.13
2022-07-29T08:14:24.597Z,91999.84
2022-07-29T08:16:52.214Z,91997.78
2022-07-29T08:19:18.986Z,91994.97
2022-07-29T08:21:45.490Z,91996.44
2022-07-29T08:24:30.596Z,91990.81
2022-07-29T08:26:57.118Z,91985.22
2022-07-29T08:29:23.680Z,91977.44
2022-07-29T08:31:50.482Z,91979.59
2022-07-29T08:34:17.522Z,91984.47
2022-07-29T08:36:44.178Z,91974.72
2022-07-29T08:39:16.831Z,91978.16
2022-07-29T08:41:56.967Z,91972.56
2022-07-29T08:44:30.638Z,91965.59
2022-07-29T08:46:58.280Z,91973.25
2022-07-29T08:49:25.128Z,91965.59
2022-07-29T08:51:52.482Z,91974.00
2022-07-29T08:54:19.882Z,91961.47
2022-07-29T08:56:50.936Z,91957.19
2022-07-29T08:59:21.854Z,91957.19
2022-07-29T09:01:53.755Z,91951.56
2022-07-29T09:04:21.656Z,91948.16
2022-07-29T09:06:52.974Z,91953.03
2022-07-29T09:09:19.834Z,91941.84
2022-07-29T09:11:46.477Z,91940.38
2022-07-29T09:14:14.678Z,91934.75
2022-07-29T09:16:55.598Z,91935.50
2022-07-29T09:19:31.010Z,91925.72
2022-07-29T09:21:59.636Z,91926.34
2022-07-29T09:24:28.500Z,91923.53
2022-07-29T09:26:55.448Z,91917.94
2022-07-29T09:29:23.698Z,91920.84
2022-07-29T09:31:52.919Z,91926.47
2022-07-29T09:34:32.263Z,91914.50
2022-07-29T09:36:59.167Z,91915.88
2022-07-29T09:39:37.479Z,91912.34
2022-07-29T09:42:06.371Z,91906.72
2022-07-29T09:44:45.950Z,91906.72
2022-07-29T09:47:13.268Z,91901.13
2022-07-29T09:49:53.538Z,91901.84
2022-07-29T09:52:20.820Z,91889.91
2022-07-29T09:54:47.288Z,91880.16
2022-07-29T09:57:30.037Z,91885.78
2022-07-29T10:00:10.088Z,91885.78
2022-07-29T10:02:37.872Z,91887.31
2022-07-29T10:05:07.212Z,91880.25
2022-07-29T10:07:57.129Z,91876.72
2022-07-29T10:10:25.189Z,91870.41
2022-07-29T10:12:59.033Z,91868.94
2022-07-29T10:15:29.815Z,91867.59
2022-07-29T10:17:57.592Z,91865.00
2022-07-29T10:20:26.315Z,91867.06
2022-07-29T10:22:54.176Z,91860.09
2022-07-29T10:25:21.563Z,91862.31
2022-07-29T10:27:49.571Z,91861.81
2022-07-29T10:30:17.795Z,91852.78
2022-07-29T10:33:21.665Z,91854.94
2022-07-29T10:36:06.386Z,91841.03
2022-07-29T10:39:10.416Z,91846.00
2022-07-29T10:41:59.051Z,91840.50
2022-07-29T10:44:28.126Z,91840.50
2022-07-29T10:46:55.905Z,91837.69
2022-07-29T10:49:27.994Z,91834.91
2022-07-29T10:52:08.412Z,91825.13
2022-07-29T10:54:43.852Z,91819.50
2022-07-29T10:57:21.365Z,91816.81
2022-07-29T11:00:12.252Z,91811.22
2022-07-29T11:02:45.749Z,91802.78
2022-07-29T11:05:18.758Z,91797.28
2022-07-29T11:08:19.983Z,91804.34
2022-07-29T11:11:08.192Z,91782.63
2022-07-29T11:13:51.529Z,91784.81
2022-07-29T11:16:23.103Z,91786.16
2022-07-29T11:19:13.855Z,91786.16
2022-07-29T11:21:55.494Z,91784.81
2022-07-29T11:24:35.820Z,91779.72
2022-07-29T11:27:18.332Z,91777.56
2022-07-29T11:29:55.531Z,91775.38
2022-07-29T11:32:24.192Z,91784.44
2022-07-29T11:35:17.424Z,91792.72
2022-07-29T11:37:46.099Z,91792.72
2022-07-29T11:40:22.996Z,91792.72
2022-07-29T11:45:47.251Z,91756.91
2022-07-29T11:48:29.467Z,91756.09
2022-07-29T11:50:58.950Z,91769.47
2022-07-29T11:53:25.832Z,91782.78
2022-07-29T11:55:58.101Z,91775.72
2022-07-29T11:58:26.007Z,91787.66
2022-07-29T12:00:55.607Z,91785.59
2022-07-29T12:03:35.196Z,91789.72
2022-07-29T12:06:21.197Z,91775.72
2022-07-29T12:08:48.034Z,91774.38
2022-07-29T12:11:21.461Z,91767.41
2022-07-29T12:13:49.842Z,91768.75
2022-07-29T12:16:25.318Z,91758.88
2022-07-29T12:19:00.542Z,91757.44
2022-07-29T12:21:29.306Z,91756.09
2022-07-29T12:24:01.821Z,91754.53
2022-07-29T12:26:34.068Z,91751.09
2022-07-29T12:29:02.333Z,91750.38
2022-07-29T12:31:42.901Z,91744.75
2022-07-29T12:34:16.606Z,91733.56
2022-07-29T12:36:44.346Z,91727.94
2022-07-29T12:39:12.506Z,91723.69
2022-07-29T12:41:39.915Z,91719.44
2022-07-29T12:44:06.500Z,91712.38
2022-07-29T12:46:33.335Z,91699.81
2022-07-29T12:49:00.018Z,91697.00
2022-07-29T12:51:37.916Z,91697.00
2022-07-29T12:54:06.042Z,91691.41
2022-07-29T12:56:42.588Z,91701.19
2022-07-29T12:59:14.135Z,91695.56
2022-07-29T13:01:40.776Z,91701.19
2022-07-29T13:04:07.469Z,91695.56
2022-07-29T13:06:41.578Z,91703.97
2022-07-29T13:09:14.482Z,91704.72
2022-07-29T13:11:48.208Z,91715.94
2022-07-29T13:14:36.841Z,91719.44
2022-07-29T13:17:09.251Z,91729.22
2022-07-29T13:19:38.543Z,91734.81
2022-07-29T13:22:05.700Z,91738.34
2022-07-29T13:24:32.228Z,91754.53
2022-07-29T13:26:58.795Z,91767.09
2022-07-29T13:29:31.371Z,91786.72
2022-07-29T13:31:58.590Z,91797.94
2022-07-29T13:34:25.430Z,91816.94
2022-07-29T13:36:52.086Z,91835.22
2022-07-29T13:39:18.731Z,91840.72
2022-07-29T13:41:45.401Z,91833.78
2022-07-29T13:44:11.920Z,91849.84
2022-07-29T13:46:40.030Z,91876.44
2022-07-29T13:49:06.870Z,91882.03
2022-07-29T13:51:33.540Z,91886.94
2022-07-29T13:54:00.103Z,91895.34
2022-07-29T13:56:27.220Z,91896.06
2022-07-29T13:58:53.732Z,91898.84
2022-07-29T14:01:20.340Z,91887.63
2022-07-29T14:03:46.898Z,91892.53
2022-07-29T14:06:14.283Z,91898.16
2022-07-29T14:08:41.239Z,91910.06
2022-07-29T14:11:07.765Z,91919.84
2022-07-29T14:13:34.371Z,91929.69
2022-07-29T14:16:00.872Z,91939.56
2022-07-29T14:18:27.441Z,91944.44
2022-07-29T14:20:54.106Z,91945.19
2022-07-29T14:23:20.747Z,91953.47
2022-07-29T14:25:47.484Z,91942.28
2022-07-29T14:28:16.058Z,91940.91
2022-07-29T14:30:43.301Z,91934.59
2022-07-29T14:33:09.852Z,91935.31
2022-07-29T14:35:36.456Z,91945.06
2022-07-29T14:38:03.203Z,91957.63
2022-07-29T14:40:30.019Z,91962.63
2022-07-29T14:42:56.583Z,91954.94
2022-07-29T14:45:23.764Z,91941.53
2022-07-29T14:47:51.689Z,91939.56
2022-07-29T14:50:29.260Z,91943.72
2022-07-29T14:52:59.056Z,91939.47
2022-07-29T14:55:25.679Z,91935.31
2022-07-29T14:57:54.323Z,91937.41
2022-07-29T15:00:25.351Z,91942.38
2022-07-29T15:03:01.952Z,91926.88
2022-07-29T15:05:29.691Z,91926.88
2022-07-29T15:07:56.316Z,91926.19
2022-07-29T15:10:24.741Z,91922.66
2022-07-29T15:12:51.421Z,91922.03
2022-07-29T15:15:18.212Z,91917.03
2022-07-29T15:17:44.945Z,91916.41
2022-07-29T15:20:12.731Z,91911.53
2022-07-29T15:22:39.386Z,91913.19
2022-07-29T15:25:06.775Z,91922.97
2022-07-29T15:27:33.342Z,91910.50
2022-07-29T15:29:59.892Z,91917.66
2022-07-29T15:32:26.459Z,91920.47
2022-07-29T15:34:53.028Z,91921.41
2022-07-29T15:37:19.619Z,91925.75
2022-07-29T15:39:46.140Z,91920.88
2022-07-29T15:42:12.668Z,91933.44
2022-07-29T15:44:39.207Z,91932.09
2022-07-29T15:47:07.237Z,91939.66
2022-07-29T15:49:48.056Z,91938.94
2022-07-29T15:52:19.355Z,91936.25
2022-07-29T15:54:51.608Z,91941.84
2022-07-29T15:57:18.131Z,91926.28
2022-07-29T15:59:44.667Z,91934.47
2022-07-29T16:02:11.230Z,91932.94
2022-07-29T16:04:37.948Z,91942.88
2022-07-29T16:07:04.547Z,91943.94
2022-07-29T16:09:31.065Z,91947.34
2022-07-29T16:11:57.649Z,91950.13
2022-07-29T16:14:24.524Z,91952.81
2022-07-29T16:16:55.187Z,91957.06
2022-07-29T16:19:21.999Z,91955.75
2022-07-29T16:21:48.534Z,91953.13
2022-07-29T16:24:15.090Z,91958.72
2022-07-29T16:26:41.676Z,91956.16
2022-07-29T16:29:08.232Z,91952.00
2022-07-29T16:31:34.802Z,91960.53
2022-07-29T16:34:01.800Z,91956.41
2022-07-29T16:36:28.444Z,91959.31
2022-07-29T16:38:55.016Z,91952.34
2022-07-29T16:41:21.550Z,91955.34
2022-07-29T16:43:48.131Z,91959.59
2022-07-29T16:46:18.418Z,91969.50
2022-07-29T16:48:45.802Z,91969.50
2022-07-29T16:51:14.375Z,91968.03
2022-07-29T16:53:41.515Z,91974.78
2022-07-29T16:56:08.503Z,91982.84
2022-07-29T16:58:43.190Z,91992.28
2022-07-29T17:01:10.489Z,91997.91
2022-07-29T17:03:59.947Z,92008.88
2022-07-29T17:06:27.671Z,92001.81
2022-07-29T17:08:54.467Z,92016.03
2022-07-29T17:11:20.990Z,92020.06
2022-07-29T17:13:47.503Z,92023.16
2022-07-29T17:16:14.039Z,92028.75
2022-07-29T17:18:40.571Z,92030.59
2022-07-29T17:21:07.098Z,92026.34
2022-07-29T17:23:33.613Z,92028.31
2022-07-29T17:26:00.130Z,92025.41
2022-07-29T17:28:26.646Z,92033.69
2022-07-29T17:30:53.343Z,92044.88
2022-07-29T17:33:19.900Z,92042.00
2022-07-29T17:36:04.862Z,92047.59
2022-07-29T17:38:31.406Z,92035.16
2022-07-29T17:40:58.012Z,92035.91
2022-07-29T17:43:24.532Z,92044.88
2022-07-29T17:45:51.522Z,92043.44
2022-07-29T17:48:19.540Z,92057.34
2022-07-29T17:50:47.467Z,92051.63
2022-07-29T17:53:15.917Z,92053.72
2022-07-29T17:55:45.370Z,92040.31
2022-07-29T17:58:12.462Z,92050.56
2022-07-29T18:00:39.341Z,92047.66
2022-07-29T18:03:07.167Z,92045.22
2022-07-29T18:05:34.082Z,92048.88
2022-07-29T18:08:01.404Z,92053.75
2022-07-29T18:10:27.842Z,92052.31
2022-07-29T18:12:54.402Z,92050.84
2022-07-29T18:15:21.080Z,92063.50
2022-07-29T18:17:57.180Z,92059.84
2022-07-29T18:20:28.398Z,92054.13
2022-07-29T18:22:55.078Z,92061.81
2022-07-29T18:25:22.099Z,92061.81
2022-07-29T18:27:48.665Z,92053.31
2022-07-29T18:30:15.309Z,92049.16
2022-07-29T18:32:54.321Z,92061.81
2022-07-29T18:35:28.841Z,92059.13
2022-07-29T18:38:00.701Z,92059.13
2022-07-29T18:40:29.622Z,92059.13
2022-07-29T18:42:56.306Z,92059.13
2022-07-29T18:45:22.960Z,92064.50
2022-07-29T18:47:55.443Z,92066.69
2022-07-29T18:50:28.940Z,92070.22
2022-07-29T18:52:58.669Z,92065.97
2022-07-29T18:55:26.186Z,92071.56
2022-07-29T18:57:54.335Z,92071.56
2022-07-29T19:00:22.759Z,92070.22
2022-07-29T19:02:49.964Z,92075.72
2022-07-29T19:05:16.677Z,92074.38
2022-07-29T19:07:43.198Z,92075.56
2022-07-29T19:10:09.962Z,92076.19
2022-07-29T19:12:36.585Z,92085.28
2022-07-29T19:15:03.597Z,92092.25
2022-07-29T19:17:30.155Z,92096.38
2022-07-29T19:19:56.763Z,92099.19
2022-07-29T19:22:23.516Z,92106.13
2022-07-29T19:24:50.844Z,92110.25
2022-07-29T19:27:17.827Z,92111.50
2022-07-29T19:29:44.635Z,92112.84
2022-07-29T19:32:11.376Z,92113.56
2022-07-29T19:34:38.335Z,92115.66
2022-07-29T19:37:05.323Z,92122.47
2022-07-29T19:39:35.523Z,92126.59
2022-07-29T19:42:03.457Z,92129.28
2022-07-29T19:44:30.277Z,92126.25
2022-07-29T19:46:57.327Z,92127.47
2022-07-29T19:49:24.077Z,92124.44
2022-07-29T19:51:50.768Z,92128.47
2022-07-29T19:54:20.349Z,92129.56
2022-07-29T19:56:46.984Z,92128.09
2022-07-29T19:59:13.536Z,92131.03
2022-07-29T20:01:40.164Z,92139.06
2022-07-29T20:04:07.036Z,92132.00
2022-07-29T20:06:33.808Z,92131.75
2022-07-29T20:09:00.310Z,92138.97
2022-07-29T20:11:27.391Z,92137.34
2022-07-29T20:13:53.914Z,92134.22
2022-07-29T20:16:21.890Z,92131.53
2022-07-29T20:18:48.450Z,92137.13
2022-07-29T20:21:14.977Z,92139.81
2022-07-29T20:23:41.492Z,92142.50
2022-07-29T20:26:09.709Z,92139.31
2022-07-29T20:28:37.154Z,92142.84
2022-07-29T20:31:03.941Z,92134.94
2022-07-29T20:33:30.495Z,92136.41
2022-07-29T20:35:57.112Z,92139.22
2022-07-29T20:38:23.638Z,92133.50
2022-07-29T20:40:50.824Z,92130.69
2022-07-29T20:43:17.462Z,92134.69
2022-07-29T20:45:44.051Z,92132.03
2022-07-29T20:48:10.727Z,92131.19
2022-07-29T20:50:37.369Z,92135.94
2022-07-29T20:53:03.926Z,92135.19
2022-07-29T20:55:32.065Z,92130.94
2022-07-29T20:57:58.893Z,92136.53
2022-07-29T21:00:25.440Z,92135.69
2022-07-29T21:02:52.057Z,92135.19
2022-07-29T21:05:18.728Z,92140.53
2022-07-29T21:07:45.399Z,92143.09
2022-07-29T21:10:12.159Z,92137.34
2022-07-29T21:12:38.742Z,92140.66
2022-07-29T21:15:06.604Z,92132.63
2022-07-29T21:17:38.931Z,92128.09
2022-07-29T21:20:08.534Z,92136.00
2022-07-29T21:22:35.110Z,92129.28
2022-07-29T21:25:01.851Z,92134.38
2022-07-29T21:27:46.913Z,92135.38
2022-07-29T21:30:13.683Z,92135.59
2022-07-29T21:32:40.280Z,92134.38
2022-07-29T21:35:14.516Z,92136.59
2022-07-29T21:37:53.906Z,92138.88
2022-07-29T21:40:20.602Z,92131.94
2022-07-29T21:42:47.106Z,92129.25
2022-07-29T21:45:13.907Z,92132.19
2022-07-29T21:47:40.463Z,92132.28
2022-07-29T21:50:07.515Z,92140.69
2022-07-29T21:52:34.083Z,92139.47
2022-07-29T21:55:04.005Z,92123.41
2022-07-29T21:57:30.719Z,92129.72
2022-07-29T22:00:02.200Z,92124.25
2022-07-29T22:02:29.388Z,92126.31
2022-07-29T22:04:55.952Z,92127.75
2022-07-29T22:07:22.473Z,92134.09
2022-07-29T22:09:49.018Z,92129.94
2022-07-29T22:12:15.538Z,92130.06
2022-07-29T22:14:42.138Z,92118.72
2022-07-29T22:17:08.719Z,92117.53
2022-07-29T22:19:35.256Z,92116.91
2022-07-29T22:22:01.809Z,92114.84
2022-07-29T22:24:28.319Z,92114.84
2022-07-29T22:26:54.831Z,92115.56
2022-07-29T22:29:21.731Z,92120.53
2022-07-29T22:31:48.280Z,92123.34
2022-07-29T22:34:14.992Z,92120.53
2022-07-29T22:36:41.619Z,92120.53
2022-07-29T22:39:08.256Z,92123.34
2022-07-29T22:41:35.386Z,92122.00
2022-07-29T22:44:01.983Z,92124.81
2022-07-29T22:46:28.714Z,92119.22
2022-07-29T22:48:55.333Z,92124.81
2022-07-29T22:51:24.328Z,92122.75
2022-07-29T22:53:51.007Z,92120.66
2022-07-29T22:56:19.047Z,92127.00
2022-07-29T22:58:45.729Z,92126.25
2022-07-29T23:01:12.742Z,92124.94
2022-07-29T23:03:39.462Z,92121.38
2022-07-29T23:06:06.247Z,92123.56
2022-07-29T23:08:33.139Z,92125.63
2022-07-29T23:10:59.667Z,92123.56
2022-07-29T23:13:26.276Z,92128.44
2022-07-29T23:15:52.843Z,92129.19
2022-07-29T23:18:19.373Z,92133.44
2022-07-29T23:20:46.013Z,92121.50
2022-07-29T23:23:12.619Z,92119.44
2022-07-29T23:25:39.474Z,92124.31
2022-07-29T23:28:06.129Z,92122.94
2022-07-29T23:30:38.017Z,92125.75
2022-07-29T23:33:04.739Z,92120.88
2022-07-29T23:35:31.427Z,92120.88
2022-07-29T23:37:57.968Z,92125.75
2022-07-29T23:40:25.514Z,92120.88
2022-07-29T23:42:52.119Z,92125.75
2022-07-29T23:45:18.740Z,92123.69
2022-07-29T23:47:45.367Z,92121.63
2022-07-29T23:50:12.557Z,92130.03
2022-07-29T23:52:40.704Z,92125.13
2022-07-29T23:55:37.915Z,92132.09
2022-07-29T23:57:55.212Z,92127.94
